sensor_id;sensor_type;location;lat;lon;timestamp;P1;durP1;ratioP1;P2;durP2;ratioP2
7398;SDS011;3740;50.700;7.184;2023-08-17T00:00:06;6.70;;;5.68;;
7398;SDS011;3740;50.700;7.184;2023-08-17T00:02:38;6.88;;;6.28;;
7398;SDS011;3740;50.700;7.184;2023-08-17T00:05:04;6.88;;;6.07;;
7398;SDS011;3740;50.700;7.184;2023-08-17T00:07:31;7.38;;;6.63;;
7398;SDS011;3740;50.700;7.184;2023-08-17T00:09:57;7.55;;;6.82;;
7398;SDS011;3740;50.700;7.184;2023-08-17T00:12:22;9.05;;;8.32;;
7398;SDS011;3740;50.700;7.184;2023-08-17T00:14:48;9.13;;;8.32;;
7398;SDS011;3740;50.700;7.184;2023-08-17T00:17:13;9.35;;;8.65;;
7398;SDS011;3740;50.700;7.184;2023-08-17T00:19:39;10.60;;;9.60;;
7398;SDS011;3740;50.700;7.184;2023-08-17T00:22:04;10.55;;;9.57;;
7398;SDS011;3740;50.700;7.184;2023-08-17T00:24:30;11.68;;;10.68;;
7398;SDS011;3740;50.700;7.184;2023-08-17T00:26:55;9.73;;;8.82;;
7398;SDS011;3740;50.700;7.184;2023-08-17T00:29:21;10.40;;;9.40;;
7398;SDS011;3740;50.700;7.184;2023-08-17T00:31:47;10.65;;;9.77;;
7398;SDS011;3740;50.700;7.184;2023-08-17T00:34:12;10.25;;;9.38;;
7398;SDS011;3740;50.700;7.184;2023-08-17T00:36:38;9.95;;;9.05;;
7398;SDS011;3740;50.700;7.184;2023-08-17T00:39:04;9.23;;;8.32;;
7398;SDS011;3740;50.700;7.184;2023-08-17T00:41:29;12.23;;;11.13;;
7398;SDS011;3740;50.700;7.184;2023-08-17T00:43:55;10.88;;;9.98;;
7398;SDS011;3740;50.700;7.184;2023-08-17T00:46:21;11.27;;;10.38;;
7398;SDS011;3740;50.700;7.184;2023-08-17T00:48:48;11.52;;;10.48;;
7398;SDS011;3740;50.700;7.184;2023-08-17T00:51:14;11.35;;;10.45;;
7398;SDS011;3740;50.700;7.184;2023-08-17T00:53:40;10.80;;;9.88;;
7398;SDS011;3740;50.700;7.184;2023-08-17T00:56:06;12.30;;;11.20;;
7398;SDS011;3740;50.700;7.184;2023-08-17T00:58:33;13.95;;;12.65;;
7398;SDS011;3740;50.700;7.184;2023-08-17T01:00:59;11.98;;;10.85;;
7398;SDS011;3740;50.700;7.184;2023-08-17T01:03:25;12.82;;;11.73;;
7398;SDS011;3740;50.700;7.184;2023-08-17T01:05:54;13.00;;;11.75;;
7398;SDS011;3740;50.700;7.184;2023-08-17T01:08:19;11.70;;;10.35;;
7398;SDS011;3740;50.700;7.184;2023-08-17T01:11:06;12.15;;;11.05;;
7398;SDS011;3740;50.700;7.184;2023-08-17T01:16:32;15.55;;;13.95;;
7398;SDS011;3740;50.700;7.184;2023-08-17T01:19:06;13.80;;;12.55;;
7398;SDS011;3740;50.700;7.184;2023-08-17T01:21:40;12.88;;;11.77;;
7398;SDS011;3740;50.700;7.184;2023-08-17T01:24:08;11.93;;;10.93;;
7398;SDS011;3740;50.700;7.184;2023-08-17T01:26:35;11.95;;;10.65;;
7398;SDS011;3740;50.700;7.184;2023-08-17T01:29:01;12.45;;;11.27;;
7398;SDS011;3740;50.700;7.184;2023-08-17T01:31:28;11.88;;;10.80;;
7398;SDS011;3740;50.700;7.184;2023-08-17T01:34:03;13.20;;;12.00;;
7398;SDS011;3740;50.700;7.184;2023-08-17T01:36:33;12.30;;;11.10;;
7398;SDS011;3740;50.700;7.184;2023-08-17T01:39:02;12.00;;;10.90;;
7398;SDS011;3740;50.700;7.184;2023-08-17T01:41:29;11.40;;;10.35;;
7398;SDS011;3740;50.700;7.184;2023-08-17T01:43:56;12.95;;;11.70;;
7398;SDS011;3740;50.700;7.184;2023-08-17T01:46:24;12.18;;;11.18;;
7398;SDS011;3740;50.700;7.184;2023-08-17T01:48:54;12.63;;;11.40;;
7398;SDS011;3740;50.700;7.184;2023-08-17T01:51:21;12.70;;;11.52;;
7398;SDS011;3740;50.700;7.184;2023-08-17T01:53:47;12.60;;;11.60;;
7398;SDS011;3740;50.700;7.184;2023-08-17T01:56:12;13.05;;;11.77;;
7398;SDS011;3740;50.700;7.184;2023-08-17T01:58:38;12.45;;;11.45;;
7398;SDS011;3740;50.700;7.184;2023-08-17T02:01:04;13.25;;;12.05;;
7398;SDS011;3740;50.700;7.184;2023-08-17T02:03:29;13.45;;;12.23;;
7398;SDS011;3740;50.700;7.184;2023-08-17T02:05:58;13.77;;;12.65;;
7398;SDS011;3740;50.700;7.184;2023-08-17T02:08:24;13.90;;;12.60;;
7398;SDS011;3740;50.700;7.184;2023-08-17T02:10:50;13.10;;;12.02;;
7398;SDS011;3740;50.700;7.184;2023-08-17T02:13:15;13.77;;;12.57;;
7398;SDS011;3740;50.700;7.184;2023-08-17T02:15:41;15.70;;;14.40;;
7398;SDS011;3740;50.700;7.184;2023-08-17T02:18:07;13.07;;;11.98;;
7398;SDS011;3740;50.700;7.184;2023-08-17T02:20:33;15.13;;;13.80;;
7398;SDS011;3740;50.700;7.184;2023-08-17T02:22:59;13.50;;;12.32;;
7398;SDS011;3740;50.700;7.184;2023-08-17T02:25:24;14.30;;;12.90;;
7398;SDS011;3740;50.700;7.184;2023-08-17T02:27:50;14.18;;;12.70;;
7398;SDS011;3740;50.700;7.184;2023-08-17T02:30:15;12.40;;;11.40;;
7398;SDS011;3740;50.700;7.184;2023-08-17T02:32:41;13.43;;;12.18;;
7398;SDS011;3740;50.700;7.184;2023-08-17T02:35:07;12.90;;;11.60;;
7398;SDS011;3740;50.700;7.184;2023-08-17T02:37:33;13.52;;;12.35;;
7398;SDS011;3740;50.700;7.184;2023-08-17T02:39:58;13.05;;;12.05;;
7398;SDS011;3740;50.700;7.184;2023-08-17T02:42:24;13.48;;;12.27;;
7398;SDS011;3740;50.700;7.184;2023-08-17T02:44:49;12.65;;;11.65;;
7398;SDS011;3740;50.700;7.184;2023-08-17T02:47:15;14.68;;;13.38;;
7398;SDS011;3740;50.700;7.184;2023-08-17T02:49:40;14.90;;;13.60;;
7398;SDS011;3740;50.700;7.184;2023-08-17T02:52:06;14.55;;;13.30;;
7398;SDS011;3740;50.700;7.184;2023-08-17T02:54:32;13.38;;;12.27;;
7398;SDS011;3740;50.700;7.184;2023-08-17T02:56:57;13.10;;;12.00;;
7398;SDS011;3740;50.700;7.184;2023-08-17T02:59:24;17.48;;;15.77;;
7398;SDS011;3740;50.700;7.184;2023-08-17T03:01:49;17.92;;;16.15;;
7398;SDS011;3740;50.700;7.184;2023-08-17T03:04:15;16.17;;;14.65;;
7398;SDS011;3740;50.700;7.184;2023-08-17T03:06:40;15.75;;;14.35;;
7398;SDS011;3740;50.700;7.184;2023-08-17T03:09:06;16.35;;;14.88;;
7398;SDS011;3740;50.700;7.184;2023-08-17T03:11:31;17.13;;;15.68;;
7398;SDS011;3740;50.700;7.184;2023-08-17T03:13:57;14.50;;;13.18;;
7398;SDS011;3740;50.700;7.184;2023-08-17T03:16:28;14.88;;;13.48;;
7398;SDS011;3740;50.700;7.184;2023-08-17T03:18:55;15.95;;;14.30;;
7398;SDS011;3740;50.700;7.184;2023-08-17T03:21:21;15.38;;;14.07;;
7398;SDS011;3740;50.700;7.184;2023-08-17T03:23:47;13.85;;;12.48;;
7398;SDS011;3740;50.700;7.184;2023-08-17T03:26:13;14.63;;;13.13;;
7398;SDS011;3740;50.700;7.184;2023-08-17T03:28:39;15.32;;;14.02;;
7398;SDS011;3740;50.700;7.184;2023-08-17T03:31:05;13.05;;;11.93;;
7398;SDS011;3740;50.700;7.184;2023-08-17T03:33:32;15.52;;;14.07;;
7398;SDS011;3740;50.700;7.184;2023-08-17T03:35:57;14.18;;;12.85;;
7398;SDS011;3740;50.700;7.184;2023-08-17T03:38:23;13.77;;;12.48;;
7398;SDS011;3740;50.700;7.184;2023-08-17T03:40:48;13.23;;;12.13;;
7398;SDS011;3740;50.700;7.184;2023-08-17T03:43:14;15.65;;;14.10;;
7398;SDS011;3740;50.700;7.184;2023-08-17T03:45:40;15.25;;;13.75;;
7398;SDS011;3740;50.700;7.184;2023-08-17T03:48:07;13.30;;;12.15;;
7398;SDS011;3740;50.700;7.184;2023-08-17T03:50:32;12.50;;;11.27;;
7398;SDS011;3740;50.700;7.184;2023-08-17T03:52:58;13.85;;;12.65;;
7398;SDS011;3740;50.700;7.184;2023-08-17T03:55:23;17.10;;;15.27;;
7398;SDS011;3740;50.700;7.184;2023-08-17T03:57:49;16.35;;;14.77;;
7398;SDS011;3740;50.700;7.184;2023-08-17T04:00:14;16.05;;;14.35;;
7398;SDS011;3740;50.700;7.184;2023-08-17T04:02:40;17.13;;;14.13;;
7398;SDS011;3740;50.700;7.184;2023-08-17T04:05:06;15.55;;;14.00;;
7398;SDS011;3740;50.700;7.184;2023-08-17T04:07:32;15.07;;;13.57;;
7398;SDS011;3740;50.700;7.184;2023-08-17T04:09:57;17.13;;;14.95;;
7398;SDS011;3740;50.700;7.184;2023-08-17T04:12:23;21.73;;;16.40;;
7398;SDS011;3740;50.700;7.184;2023-08-17T04:14:48;19.40;;;16.10;;
7398;SDS011;3740;50.700;7.184;2023-08-17T04:17:14;23.70;;;18.15;;
7398;SDS011;3740;50.700;7.184;2023-08-17T04:19:40;17.88;;;15.90;;
7398;SDS011;3740;50.700;7.184;2023-08-17T04:22:05;20.23;;;16.85;;
7398;SDS011;3740;50.700;7.184;2023-08-17T04:24:31;24.67;;;18.65;;
7398;SDS011;3740;50.700;7.184;2023-08-17T04:26:56;30.25;;;23.80;;
7398;SDS011;3740;50.700;7.184;2023-08-17T04:29:22;26.40;;;20.17;;
7398;SDS011;3740;50.700;7.184;2023-08-17T04:31:47;29.63;;;23.23;;
7398;SDS011;3740;50.700;7.184;2023-08-17T04:34:13;26.63;;;21.45;;
7398;SDS011;3740;50.700;7.184;2023-08-17T04:36:38;30.35;;;23.08;;
7398;SDS011;3740;50.700;7.184;2023-08-17T04:39:04;26.17;;;21.23;;
7398;SDS011;3740;50.700;7.184;2023-08-17T04:41:30;27.17;;;19.80;;
7398;SDS011;3740;50.700;7.184;2023-08-17T04:43:56;23.75;;;19.85;;
7398;SDS011;3740;50.700;7.184;2023-08-17T04:46:21;24.02;;;19.17;;
7398;SDS011;3740;50.700;7.184;2023-08-17T04:48:47;24.27;;;21.60;;
7398;SDS011;3740;50.700;7.184;2023-08-17T04:51:13;29.90;;;23.67;;
7398;SDS011;3740;50.700;7.184;2023-08-17T04:53:39;23.85;;;21.33;;
7398;SDS011;3740;50.700;7.184;2023-08-17T04:56:05;23.23;;;20.80;;
7398;SDS011;3740;50.700;7.184;2023-08-17T04:58:31;29.67;;;23.25;;
7398;SDS011;3740;50.700;7.184;2023-08-17T05:00:56;32.70;;;24.52;;
7398;SDS011;3740;50.700;7.184;2023-08-17T05:03:23;29.58;;;25.58;;
7398;SDS011;3740;50.700;7.184;2023-08-17T05:05:49;28.17;;;23.55;;
7398;SDS011;3740;50.700;7.184;2023-08-17T05:08:16;32.90;;;26.48;;
7398;SDS011;3740;50.700;7.184;2023-08-17T05:10:42;33.00;;;27.08;;
7398;SDS011;3740;50.700;7.184;2023-08-17T05:13:07;29.30;;;24.70;;
7398;SDS011;3740;50.700;7.184;2023-08-17T05:15:33;32.00;;;25.90;;
7398;SDS011;3740;50.700;7.184;2023-08-17T05:17:58;26.23;;;22.70;;
7398;SDS011;3740;50.700;7.184;2023-08-17T05:20:24;27.30;;;23.80;;
7398;SDS011;3740;50.700;7.184;2023-08-17T05:22:49;30.38;;;26.05;;
7398;SDS011;3740;50.700;7.184;2023-08-17T05:25:15;32.83;;;25.80;;
7398;SDS011;3740;50.700;7.184;2023-08-17T05:27:41;34.45;;;25.75;;
7398;SDS011;3740;50.700;7.184;2023-08-17T05:30:06;30.67;;;25.40;;
7398;SDS011;3740;50.700;7.184;2023-08-17T05:32:32;28.20;;;23.02;;
7398;SDS011;3740;50.700;7.184;2023-08-17T05:34:58;22.80;;;20.58;;
7398;SDS011;3740;50.700;7.184;2023-08-17T05:37:23;19.58;;;17.58;;
7398;SDS011;3740;50.700;7.184;2023-08-17T05:39:49;16.60;;;14.98;;
7398;SDS011;3740;50.700;7.184;2023-08-17T05:42:15;14.32;;;12.82;;
7398;SDS011;3740;50.700;7.184;2023-08-17T05:44:41;15.52;;;13.18;;
7398;SDS011;3740;50.700;7.184;2023-08-17T05:47:06;14.23;;;12.93;;
7398;SDS011;3740;50.700;7.184;2023-08-17T05:49:32;11.85;;;10.90;;
7398;SDS011;3740;50.700;7.184;2023-08-17T05:51:57;11.73;;;10.63;;
7398;SDS011;3740;50.700;7.184;2023-08-17T05:54:23;10.70;;;9.70;;
7398;SDS011;3740;50.700;7.184;2023-08-17T05:56:48;9.98;;;8.98;;
7398;SDS011;3740;50.700;7.184;2023-08-17T05:59:14;9.52;;;8.63;;
7398;SDS011;3740;50.700;7.184;2023-08-17T06:01:40;8.48;;;7.68;;
7398;SDS011;3740;50.700;7.184;2023-08-17T06:04:06;10.20;;;8.90;;
7398;SDS011;3740;50.700;7.184;2023-08-17T06:06:32;10.38;;;9.48;;
7398;SDS011;3740;50.700;7.184;2023-08-17T06:08:57;9.02;;;8.23;;
7398;SDS011;3740;50.700;7.184;2023-08-17T06:11:23;8.93;;;8.13;;
7398;SDS011;3740;50.700;7.184;2023-08-17T06:13:49;9.88;;;8.98;;
7398;SDS011;3740;50.700;7.184;2023-08-17T06:16:14;10.38;;;9.48;;
7398;SDS011;3740;50.700;7.184;2023-08-17T06:18:40;10.70;;;9.23;;
7398;SDS011;3740;50.700;7.184;2023-08-17T06:21:06;9.80;;;8.80;;
7398;SDS011;3740;50.700;7.184;2023-08-17T06:23:32;9.32;;;8.52;;
7398;SDS011;3740;50.700;7.184;2023-08-17T06:25:59;9.07;;;8.27;;
7398;SDS011;3740;50.700;7.184;2023-08-17T06:28:25;10.15;;;9.15;;
7398;SDS011;3740;50.700;7.184;2023-08-17T06:30:52;8.93;;;8.20;;
7398;SDS011;3740;50.700;7.184;2023-08-17T06:33:18;9.02;;;7.55;;
7398;SDS011;3740;50.700;7.184;2023-08-17T06:35:44;9.05;;;7.47;;
7398;SDS011;3740;50.700;7.184;2023-08-17T06:38:09;8.82;;;8.00;;
7398;SDS011;3740;50.700;7.184;2023-08-17T06:40:35;9.90;;;9.00;;
7398;SDS011;3740;50.700;7.184;2023-08-17T06:43:01;10.13;;;8.82;;
7398;SDS011;3740;50.700;7.184;2023-08-17T06:45:26;8.38;;;7.60;;
7398;SDS011;3740;50.700;7.184;2023-08-17T06:47:52;9.88;;;8.98;;
7398;SDS011;3740;50.700;7.184;2023-08-17T06:50:17;10.45;;;9.43;;
7398;SDS011;3740;50.700;7.184;2023-08-17T06:52:43;9.10;;;8.30;;
7398;SDS011;3740;50.700;7.184;2023-08-17T06:55:09;10.07;;;8.10;;
7398;SDS011;3740;50.700;7.184;2023-08-17T06:57:35;12.85;;;9.27;;
7398;SDS011;3740;50.700;7.184;2023-08-17T07:00:01;10.50;;;9.45;;
7398;SDS011;3740;50.700;7.184;2023-08-17T07:02:30;10.25;;;8.70;;
7398;SDS011;3740;50.700;7.184;2023-08-17T07:04:56;10.40;;;9.27;;
7398;SDS011;3740;50.700;7.184;2023-08-17T07:07:21;10.18;;;9.27;;
7398;SDS011;3740;50.700;7.184;2023-08-17T07:09:47;9.23;;;8.43;;
7398;SDS011;3740;50.700;7.184;2023-08-17T07:12:12;12.95;;;8.90;;
7398;SDS011;3740;50.700;7.184;2023-08-17T07:14:38;10.90;;;9.57;;
7398;SDS011;3740;50.700;7.184;2023-08-17T07:17:04;11.07;;;8.85;;
7398;SDS011;3740;50.700;7.184;2023-08-17T07:19:29;9.02;;;8.15;;
7398;SDS011;3740;50.700;7.184;2023-08-17T07:21:55;11.23;;;9.18;;
7398;SDS011;3740;50.700;7.184;2023-08-17T07:24:20;16.73;;;10.90;;
7398;SDS011;3740;50.700;7.184;2023-08-17T07:26:46;11.68;;;10.07;;
7398;SDS011;3740;50.700;7.184;2023-08-17T07:29:11;11.93;;;10.30;;
7398;SDS011;3740;50.700;7.184;2023-08-17T07:31:40;12.60;;;10.32;;
7398;SDS011;3740;50.700;7.184;2023-08-17T07:34:06;13.43;;;12.02;;
7398;SDS011;3740;50.700;7.184;2023-08-17T07:36:32;12.38;;;10.32;;
7398;SDS011;3740;50.700;7.184;2023-08-17T07:38:58;13.50;;;11.90;;
7398;SDS011;3740;50.700;7.184;2023-08-17T07:41:23;11.65;;;10.55;;
7398;SDS011;3740;50.700;7.184;2023-08-17T07:43:49;12.40;;;10.75;;
7398;SDS011;3740;50.700;7.184;2023-08-17T07:46:14;14.55;;;11.15;;
7398;SDS011;3740;50.700;7.184;2023-08-17T07:48:40;20.58;;;12.65;;
7398;SDS011;3740;50.700;7.184;2023-08-17T07:51:06;11.70;;;10.43;;
7398;SDS011;3740;50.700;7.184;2023-08-17T07:53:32;17.35;;;13.95;;
7398;SDS011;3740;50.700;7.184;2023-08-17T07:55:57;13.30;;;10.35;;
7398;SDS011;3740;50.700;7.184;2023-08-17T07:58:23;15.65;;;12.65;;
7398;SDS011;3740;50.700;7.184;2023-08-17T08:00:48;12.00;;;10.20;;
7398;SDS011;3740;50.700;7.184;2023-08-17T08:03:14;13.25;;;11.93;;
7398;SDS011;3740;50.700;7.184;2023-08-17T08:05:40;13.57;;;10.48;;
7398;SDS011;3740;50.700;7.184;2023-08-17T08:08:05;15.40;;;13.88;;
7398;SDS011;3740;50.700;7.184;2023-08-17T08:10:31;17.45;;;12.88;;
7398;SDS011;3740;50.700;7.184;2023-08-17T08:12:57;14.27;;;11.38;;
7398;SDS011;3740;50.700;7.184;2023-08-17T08:15:22;12.40;;;10.40;;
7398;SDS011;3740;50.700;7.184;2023-08-17T08:17:48;12.20;;;11.00;;
7398;SDS011;3740;50.700;7.184;2023-08-17T08:20:14;14.13;;;11.18;;
7398;SDS011;3740;50.700;7.184;2023-08-17T08:22:39;12.23;;;10.15;;
7398;SDS011;3740;50.700;7.184;2023-08-17T08:25:05;12.13;;;10.52;;
7398;SDS011;3740;50.700;7.184;2023-08-17T08:27:32;14.25;;;12.20;;
7398;SDS011;3740;50.700;7.184;2023-08-17T08:29:57;11.05;;;9.90;;
7398;SDS011;3740;50.700;7.184;2023-08-17T08:32:23;12.45;;;11.15;;
7398;SDS011;3740;50.700;7.184;2023-08-17T08:34:48;13.38;;;11.65;;
7398;SDS011;3740;50.700;7.184;2023-08-17T08:37:14;13.70;;;12.38;;
7398;SDS011;3740;50.700;7.184;2023-08-17T08:39:53;12.80;;;10.95;;
7398;SDS011;3740;50.700;7.184;2023-08-17T08:42:20;12.88;;;10.35;;
7398;SDS011;3740;50.700;7.184;2023-08-17T08:44:47;13.85;;;12.15;;
7398;SDS011;3740;50.700;7.184;2023-08-17T08:47:14;11.63;;;10.38;;
7398;SDS011;3740;50.700;7.184;2023-08-17T08:49:45;13.80;;;12.30;;
7398;SDS011;3740;50.700;7.184;2023-08-17T08:52:26;11.63;;;10.52;;
7398;SDS011;3740;50.700;7.184;2023-08-17T08:55:11;13.20;;;11.20;;
7398;SDS011;3740;50.700;7.184;2023-08-17T08:57:39;11.40;;;10.30;;
7398;SDS011;3740;50.700;7.184;2023-08-17T09:00:06;11.63;;;10.45;;
7398;SDS011;3740;50.700;7.184;2023-08-17T09:02:33;11.98;;;9.82;;
7398;SDS011;3740;50.700;7.184;2023-08-17T09:04:59;11.23;;;10.20;;
7398;SDS011;3740;50.700;7.184;2023-08-17T09:07:25;12.23;;;9.57;;
7398;SDS011;3740;50.700;7.184;2023-08-17T09:09:53;11.90;;;10.80;;
7398;SDS011;3740;50.700;7.184;2023-08-17T09:12:19;11.38;;;10.23;;
7398;SDS011;3740;50.700;7.184;2023-08-17T09:14:47;13.32;;;9.75;;
7398;SDS011;3740;50.700;7.184;2023-08-17T09:17:12;9.80;;;8.85;;
7398;SDS011;3740;50.700;7.184;2023-08-17T09:19:38;10.52;;;9.23;;
7398;SDS011;3740;50.700;7.184;2023-08-17T09:22:03;9.85;;;8.88;;
7398;SDS011;3740;50.700;7.184;2023-08-17T09:24:35;10.30;;;9.35;;
7398;SDS011;3740;50.700;7.184;2023-08-17T09:27:02;10.00;;;8.98;;
7398;SDS011;3740;50.700;7.184;2023-08-17T09:29:28;10.52;;;9.50;;
7398;SDS011;3740;50.700;7.184;2023-08-17T09:31:58;10.48;;;9.50;;
7398;SDS011;3740;50.700;7.184;2023-08-17T09:34:30;12.77;;;11.45;;
7398;SDS011;3740;50.700;7.184;2023-08-17T09:36:56;9.85;;;8.95;;
7398;SDS011;3740;50.700;7.184;2023-08-17T09:39:21;11.15;;;10.02;;
7398;SDS011;3740;50.700;7.184;2023-08-17T09:41:47;9.00;;;8.10;;
7398;SDS011;3740;50.700;7.184;2023-08-17T09:44:13;8.48;;;7.47;;
7398;SDS011;3740;50.700;7.184;2023-08-17T09:46:39;10.65;;;9.43;;
7398;SDS011;3740;50.700;7.184;2023-08-17T09:49:07;10.15;;;8.10;;
7398;SDS011;3740;50.700;7.184;2023-08-17T09:51:34;12.63;;;8.57;;
7398;SDS011;3740;50.700;7.184;2023-08-17T09:53:59;8.23;;;7.53;;
7398;SDS011;3740;50.700;7.184;2023-08-17T09:56:25;10.00;;;9.02;;
7398;SDS011;3740;50.700;7.184;2023-08-17T09:58:52;9.60;;;8.45;;
7398;SDS011;3740;50.700;7.184;2023-08-17T10:01:17;9.70;;;8.70;;
7398;SDS011;3740;50.700;7.184;2023-08-17T10:03:44;9.18;;;8.25;;
7398;SDS011;3740;50.700;7.184;2023-08-17T10:06:12;10.23;;;8.20;;
7398;SDS011;3740;50.700;7.184;2023-08-17T10:08:46;10.38;;;9.10;;
7398;SDS011;3740;50.700;7.184;2023-08-17T10:11:16;9.30;;;8.50;;
7398;SDS011;3740;50.700;7.184;2023-08-17T10:13:51;10.50;;;9.43;;
7398;SDS011;3740;50.700;7.184;2023-08-17T10:19:13;10.07;;;8.20;;
7398;SDS011;3740;50.700;7.184;2023-08-17T10:21:54;17.02;;;11.07;;
7398;SDS011;3740;50.700;7.184;2023-08-17T10:24:20;10.10;;;8.48;;
7398;SDS011;3740;50.700;7.184;2023-08-17T10:26:46;8.40;;;7.57;;
7398;SDS011;3740;50.700;7.184;2023-08-17T10:29:12;10.85;;;7.35;;
7398;SDS011;3740;50.700;7.184;2023-08-17T10:31:38;7.72;;;7.03;;
7398;SDS011;3740;50.700;7.184;2023-08-17T10:34:04;9.10;;;8.20;;
7398;SDS011;3740;50.700;7.184;2023-08-17T10:36:30;8.85;;;7.95;;
7398;SDS011;3740;50.700;7.184;2023-08-17T10:41:49;9.05;;;8.13;;
7398;SDS011;3740;50.700;7.184;2023-08-17T10:44:17;7.45;;;6.78;;
7398;SDS011;3740;50.700;7.184;2023-08-17T10:46:43;9.32;;;7.70;;
7398;SDS011;3740;50.700;7.184;2023-08-17T10:49:25;9.15;;;8.32;;
7398;SDS011;3740;50.700;7.184;2023-08-17T10:51:59;10.52;;;9.55;;
7398;SDS011;3740;50.700;7.184;2023-08-17T10:54:37;9.30;;;8.45;;
7398;SDS011;3740;50.700;7.184;2023-08-17T10:57:24;10.50;;;9.52;;
7398;SDS011;3740;50.700;7.184;2023-08-17T11:00:06;8.23;;;7.22;;
7398;SDS011;3740;50.700;7.184;2023-08-17T11:02:36;9.75;;;8.85;;
7398;SDS011;3740;50.700;7.184;2023-08-17T11:05:02;10.57;;;9.68;;
7398;SDS011;3740;50.700;7.184;2023-08-17T11:07:38;10.68;;;9.73;;
7398;SDS011;3740;50.700;7.184;2023-08-17T11:10:12;8.75;;;7.95;;
7398;SDS011;3740;50.700;7.184;2023-08-17T11:12:58;8.32;;;7.55;;
7398;SDS011;3740;50.700;7.184;2023-08-17T11:15:42;13.68;;;12.20;;
7398;SDS011;3740;50.700;7.184;2023-08-17T11:18:09;11.93;;;10.60;;
7398;SDS011;3740;50.700;7.184;2023-08-17T11:20:35;10.00;;;9.02;;
7398;SDS011;3740;50.700;7.184;2023-08-17T11:23:03;9.23;;;8.43;;
7398;SDS011;3740;50.700;7.184;2023-08-17T11:25:29;11.23;;;10.07;;
7398;SDS011;3740;50.700;7.184;2023-08-17T11:27:57;12.88;;;11.48;;
7398;SDS011;3740;50.700;7.184;2023-08-17T11:30:24;10.07;;;9.18;;
7398;SDS011;3740;50.700;7.184;2023-08-17T11:32:51;11.77;;;10.45;;
7398;SDS011;3740;50.700;7.184;2023-08-17T11:35:17;14.40;;;10.57;;
7398;SDS011;3740;50.700;7.184;2023-08-17T11:37:43;10.40;;;9.40;;
7398;SDS011;3740;50.700;7.184;2023-08-17T11:40:12;11.63;;;10.63;;
7398;SDS011;3740;50.700;7.184;2023-08-17T11:42:38;10.38;;;9.25;;
7398;SDS011;3740;50.700;7.184;2023-08-17T11:45:04;10.45;;;9.55;;
7398;SDS011;3740;50.700;7.184;2023-08-17T11:47:31;14.05;;;12.48;;
7398;SDS011;3740;50.700;7.184;2023-08-17T11:50:01;11.95;;;10.98;;
7398;SDS011;3740;50.700;7.184;2023-08-17T11:52:27;9.15;;;8.35;;
7398;SDS011;3740;50.700;7.184;2023-08-17T11:54:57;8.35;;;7.75;;
7398;SDS011;3740;50.700;7.184;2023-08-17T11:57:22;8.57;;;7.38;;
7398;SDS011;3740;50.700;7.184;2023-08-17T11:59:48;10.15;;;9.27;;
7398;SDS011;3740;50.700;7.184;2023-08-17T12:02:13;8.63;;;7.82;;
7398;SDS011;3740;50.700;7.184;2023-08-17T12:04:39;12.25;;;8.52;;
7398;SDS011;3740;50.700;7.184;2023-08-17T12:07:05;8.20;;;7.55;;
7398;SDS011;3740;50.700;7.184;2023-08-17T12:09:33;8.50;;;7.70;;
7398;SDS011;3740;50.700;7.184;2023-08-17T12:12:00;7.97;;;7.32;;
7398;SDS011;3740;50.700;7.184;2023-08-17T12:14:26;10.23;;;7.18;;
7398;SDS011;3740;50.700;7.184;2023-08-17T12:16:53;6.82;;;6.22;;
7398;SDS011;3740;50.700;7.184;2023-08-17T12:19:19;7.80;;;7.10;;
7398;SDS011;3740;50.700;7.184;2023-08-17T12:21:46;6.43;;;5.93;;
7398;SDS011;3740;50.700;7.184;2023-08-17T12:24:13;8.30;;;7.60;;
7398;SDS011;3740;50.700;7.184;2023-08-17T12:26:44;6.68;;;6.18;;
7398;SDS011;3740;50.700;7.184;2023-08-17T12:29:11;7.57;;;6.88;;
7398;SDS011;3740;50.700;7.184;2023-08-17T12:31:37;7.03;;;6.43;;
7398;SDS011;3740;50.700;7.184;2023-08-17T12:34:03;7.78;;;5.95;;
7398;SDS011;3740;50.700;7.184;2023-08-17T12:36:31;6.50;;;5.95;;
7398;SDS011;3740;50.700;7.184;2023-08-17T12:38:56;5.53;;;5.13;;
7398;SDS011;3740;50.700;7.184;2023-08-17T12:41:22;6.75;;;6.15;;
7398;SDS011;3740;50.700;7.184;2023-08-17T12:43:48;7.95;;;7.35;;
7398;SDS011;3740;50.700;7.184;2023-08-17T12:46:13;5.95;;;5.45;;
7398;SDS011;3740;50.700;7.184;2023-08-17T12:48:39;6.13;;;5.63;;
7398;SDS011;3740;50.700;7.184;2023-08-17T12:51:04;6.20;;;5.70;;
7398;SDS011;3740;50.700;7.184;2023-08-17T12:53:30;5.82;;;5.32;;
7398;SDS011;3740;50.700;7.184;2023-08-17T12:55:56;6.80;;;6.07;;
7398;SDS011;3740;50.700;7.184;2023-08-17T12:58:21;5.70;;;5.30;;
7398;SDS011;3740;50.700;7.184;2023-08-17T13:00:47;6.40;;;5.55;;
7398;SDS011;3740;50.700;7.184;2023-08-17T13:03:15;7.03;;;6.38;;
7398;SDS011;3740;50.700;7.184;2023-08-17T13:05:42;6.18;;;5.68;;
7398;SDS011;3740;50.700;7.184;2023-08-17T13:08:08;6.72;;;6.22;;
7398;SDS011;3740;50.700;7.184;2023-08-17T13:10:34;9.02;;;8.20;;
7398;SDS011;3740;50.700;7.184;2023-08-17T13:12:59;10.27;;;9.30;;
7398;SDS011;3740;50.700;7.184;2023-08-17T13:15:25;7.72;;;7.13;;
7398;SDS011;3740;50.700;7.184;2023-08-17T13:17:51;8.07;;;7.47;;
7398;SDS011;3740;50.700;7.184;2023-08-17T13:20:17;11.95;;;10.88;;
7398;SDS011;3740;50.700;7.184;2023-08-17T13:22:42;12.65;;;11.43;;
7398;SDS011;3740;50.700;7.184;2023-08-17T13:25:08;14.55;;;11.07;;
7398;SDS011;3740;50.700;7.184;2023-08-17T13:27:33;15.48;;;13.88;;
7398;SDS011;3740;50.700;7.184;2023-08-17T13:29:59;17.75;;;16.08;;
7398;SDS011;3740;50.700;7.184;2023-08-17T13:32:26;20.42;;;18.25;;
7398;SDS011;3740;50.700;7.184;2023-08-17T13:34:52;20.15;;;18.25;;
7398;SDS011;3740;50.700;7.184;2023-08-17T13:37:18;15.65;;;14.35;;
7398;SDS011;3740;50.700;7.184;2023-08-17T13:39:44;15.70;;;14.18;;
7398;SDS011;3740;50.700;7.184;2023-08-17T13:42:10;13.55;;;12.43;;
7398;SDS011;3740;50.700;7.184;2023-08-17T13:44:36;13.52;;;12.45;;
7398;SDS011;3740;50.700;7.184;2023-08-17T13:47:01;12.82;;;11.77;;
7398;SDS011;3740;50.700;7.184;2023-08-17T13:49:27;12.73;;;11.63;;
7398;SDS011;3740;50.700;7.184;2023-08-17T13:51:53;13.88;;;12.65;;
7398;SDS011;3740;50.700;7.184;2023-08-17T13:54:19;12.18;;;11.25;;
7398;SDS011;3740;50.700;7.184;2023-08-17T13:56:44;12.55;;;11.40;;
7398;SDS011;3740;50.700;7.184;2023-08-17T13:59:10;11.77;;;10.70;;
7398;SDS011;3740;50.700;7.184;2023-08-17T14:01:36;10.40;;;9.50;;
7398;SDS011;3740;50.700;7.184;2023-08-17T14:04:01;9.35;;;8.55;;
7398;SDS011;3740;50.700;7.184;2023-08-17T14:06:28;8.68;;;8.00;;
7398;SDS011;3740;50.700;7.184;2023-08-17T14:08:54;10.95;;;10.05;;
7398;SDS011;3740;50.700;7.184;2023-08-17T14:11:20;10.68;;;9.80;;
7398;SDS011;3740;50.700;7.184;2023-08-17T14:13:45;11.68;;;10.68;;
7398;SDS011;3740;50.700;7.184;2023-08-17T14:16:11;12.63;;;11.43;;
7398;SDS011;3740;50.700;7.184;2023-08-17T14:18:36;11.90;;;11.00;;
7398;SDS011;3740;50.700;7.184;2023-08-17T14:21:02;11.25;;;10.35;;
7398;SDS011;3740;50.700;7.184;2023-08-17T14:23:27;11.65;;;10.75;;
7398;SDS011;3740;50.700;7.184;2023-08-17T14:25:53;11.77;;;10.77;;
7398;SDS011;3740;50.700;7.184;2023-08-17T14:28:19;11.43;;;10.55;;
7398;SDS011;3740;50.700;7.184;2023-08-17T14:30:45;10.48;;;9.57;;
7398;SDS011;3740;50.700;7.184;2023-08-17T14:33:10;10.10;;;9.20;;
7398;SDS011;3740;50.700;7.184;2023-08-17T14:35:37;8.93;;;8.23;;
7398;SDS011;3740;50.700;7.184;2023-08-17T14:38:03;8.60;;;7.80;;
7398;SDS011;3740;50.700;7.184;2023-08-17T14:40:29;7.93;;;7.22;;
7398;SDS011;3740;50.700;7.184;2023-08-17T14:42:54;7.15;;;6.55;;
7398;SDS011;3740;50.700;7.184;2023-08-17T14:45:20;8.13;;;7.40;;
7398;SDS011;3740;50.700;7.184;2023-08-17T14:47:45;7.45;;;6.85;;
7398;SDS011;3740;50.700;7.184;2023-08-17T14:50:11;6.47;;;5.97;;
7398;SDS011;3740;50.700;7.184;2023-08-17T14:52:39;6.10;;;5.60;;
7398;SDS011;3740;50.700;7.184;2023-08-17T14:55:04;5.65;;;5.25;;
7398;SDS011;3740;50.700;7.184;2023-08-17T14:57:30;6.22;;;5.80;;
7398;SDS011;3740;50.700;7.184;2023-08-17T14:59:55;6.25;;;5.75;;
7398;SDS011;3740;50.700;7.184;2023-08-17T15:02:21;6.32;;;5.72;;